Aberdeen Regional Airport
KABR : now visible

Airfield :











YOU CAN JOIN US ON...

 
LOGIN :

Register | Disclaimer

   EN    FR    IT 

 









Legend :    VFR   Marginal VFR   IFR   Intensive IFR   Very Intensive IFR
Visi :
Ceiling :
>= 8 km
>= 3000ft
5 to 8 km
1000 to 3000 ft
1500m to 5 km
500 to 1000 ft
800 to 1500m
200 to 500 ft
< 800m
< 200 ft
Symbols :   Thunderstorms  Fog  Heavy snow  Heavy precipitations  Wind > 20 kt






- Airport Elevation : 1302 ft
- IATA code : ABR


KABR - Aberdeen Regional

CURRENT METAR :
  • 011453Z AUTO 19007KT 10SM OVC055 M16/M18 A3006 RMK AO2 SLP214 T11561178 53003

EXPIRED METARs :
  • 011353Z AUTO 19007KT 10SM OVC060 M18/M21 A3006 RMK AO2 SLP213 T11831211
  • 011253Z AUTO 20004KT 10SM BKN110 M19/M22 A3006 RMK AO2 SLP212 T11941217

TAF KABR
Valid from the 01 at 12:00 until the 02 at 12:00 UTC


011127Z 0112/0212 17006KT P6SM OVC110
FM011700 28007KT P6SM SCT250
FM020900 35010G17KT P6SM SCT120
FM021100 36014G23KT P6SM SCT100
KZMP FIR / North America



MET'MAP, your aeronautical weather chart ! - Copyright ORBIFLY December 2007 - Disclaimer

ORBIFLY MET'MAP TEAM :

Programming & Development : Alexandra Zaïnal
Original concept : Baudouin d'Aumeries
Technical & hardware support : Manuel Goepfert
Assistance : Marc-Olivier Méhu




SOURCES & CREDITS :

   NOAA       Earth
Advisory